Time;durP1;ratioP1;P1;durP2;ratioP2;P2;SDS_P1;SDS_P2;PMS_P1;PMS_P2;Temp;Humidity;BMP_temperature;BMP_pressure;BME280_temperature;BME280_humidity;BME280_pressure;Samples;Min_cycle;Max_cycle;Signal;HPM_P1;HPM_P2
2022/03/31 00:00:05;;;;;;;329.40;89.17;;;;;;;;;;5106147;28;20540;-91
2022/03/31 00:02:32;;;;;;;334.60;85.80;;;;;;;;;;5109519;28;20514;-90
2022/03/31 00:04:59;;;;;;;332.53;85.83;;;;;;;;;;5127333;28;20447;-91
2022/03/31 00:07:26;;;;;;;329.97;86.67;;;;;;;;;;5123648;28;20440;-91
2022/03/31 00:09:53;;;;;;;328.40;85.90;;;;;;;;;;5105790;28;20504;-93
2022/03/31 00:12:19;;;;;;;334.27;86.37;;;;;;;;;;5105568;28;20476;-92
2022/03/31 00:14:46;;;;;;;327.37;86.37;;;;;;;;;;5106048;28;20494;-90
2022/03/31 00:17:13;;;;;;;322.03;83.63;;;;;;;;;;5105422;28;20456;-92
2022/03/31 00:19:39;;;;;;;317.27;83.30;;;;;;;;;;5094125;28;21171;-91
2022/03/31 00:22:05;;;;;;;323.73;86.70;;;;;;;;;;5106440;28;20444;-91
2022/03/31 00:24:34;;;;;;;319.73;86.60;;;;;;;;;;5106116;28;20656;-92
2022/03/31 00:27:00;;;;;;;329.13;84.10;;;;;;;;;;5104465;28;20536;-91
2022/03/31 00:29:27;;;;;;;327.10;88.17;;;;;;;;;;5104630;28;20476;-91
2022/03/31 00:31:54;;;;;;;331.27;85.53;;;;;;;;;;5105342;28;20488;-91
2022/03/31 00:34:21;;;;;;;331.13;85.43;;;;;;;;;;5104019;28;20461;-92
2022/03/31 00:36:47;;;;;;;309.53;83.80;;;;;;;;;;5105374;28;20512;-92
2022/03/31 00:39:33;;;;;;;313.70;86.47;;;;;;;;;;5104834;28;20462;-92
2022/03/31 00:42:02;;;;;;;318.37;84.27;;;;;;;;;;5104002;28;20512;-91
2022/03/31 00:44:28;;;;;;;327.47;85.13;;;;;;;;;;5104206;28;20444;-92
2022/03/31 00:46:56;;;;;;;343.57;90.37;;;;;;;;;;5104124;28;20452;-91
2022/03/31 00:49:23;;;;;;;331.00;85.47;;;;;;;;;;5104645;28;20955;-91
2022/03/31 00:51:50;;;;;;;341.77;89.43;;;;;;;;;;5117917;28;20460;-92
2022/03/31 00:54:18;;;;;;;335.23;88.00;;;;;;;;;;5110548;28;20441;-93
2022/03/31 00:56:45;;;;;;;337.37;87.07;;;;;;;;;;5105848;28;20472;-91
2022/03/31 00:59:14;;;;;;;334.47;86.60;;;;;;;;;;5105824;28;20449;-92
2022/03/31 01:01:41;;;;;;;336.43;89.20;;;;;;;;;;5105656;28;20449;-90
2022/03/31 01:04:08;;;;;;;341.17;85.50;;;;;;;;;;5105268;28;20448;-92
2022/03/31 01:06:34;;;;;;;329.67;86.60;;;;;;;;;;5104842;28;20445;-92
2022/03/31 01:09:01;;;;;;;333.27;87.07;;;;;;;;;;5103143;28;20486;-93
2022/03/31 01:11:29;;;;;;;323.83;87.90;;;;;;;;;;5104392;28;20976;-90
2022/03/31 01:13:56;;;;;;;324.23;80.17;;;;;;;;;;5105053;28;20436;-92
2022/03/31 01:16:24;;;;;;;329.07;84.00;;;;;;;;;;5105663;28;20453;-92
2022/03/31 01:18:51;;;;;;;323.40;86.13;;;;;;;;;;5105917;28;20433;-91
2022/03/31 01:21:18;;;;;;;311.13;82.63;;;;;;;;;;5102790;28;20513;-91
2022/03/31 01:23:46;;;;;;;309.30;82.70;;;;;;;;;;5103338;28;20490;-90
2022/03/31 01:26:12;;;;;;;329.67;87.60;;;;;;;;;;5107973;28;20583;-91
2022/03/31 01:28:40;;;;;;;319.67;82.43;;;;;;;;;;5104964;28;21150;-90
2022/03/31 01:31:07;;;;;;;321.93;83.50;;;;;;;;;;5104663;28;20533;-91
2022/03/31 01:33:33;;;;;;;320.77;86.57;;;;;;;;;;5104666;28;20467;-91
2022/03/31 01:36:00;;;;;;;324.63;83.67;;;;;;;;;;5105047;28;20449;-89
2022/03/31 01:38:27;;;;;;;320.43;83.77;;;;;;;;;;5104593;28;20437;-91
2022/03/31 01:40:55;;;;;;;317.83;80.80;;;;;;;;;;5102874;28;20444;-89
2022/03/31 01:43:22;;;;;;;328.87;86.60;;;;;;;;;;5115836;28;20502;-90
2022/03/31 01:45:49;;;;;;;325.93;85.00;;;;;;;;;;5103692;28;20441;-91
2022/03/31 01:48:16;;;;;;;314.93;83.00;;;;;;;;;;5103726;28;20437;-91
2022/03/31 01:50:42;;;;;;;306.83;81.97;;;;;;;;;;5103966;28;20496;-90
2022/03/31 01:53:09;;;;;;;318.27;83.70;;;;;;;;;;5104142;28;20437;-92
2022/03/31 01:55:35;;;;;;;311.00;81.77;;;;;;;;;;5104969;28;20531;-91
2022/03/31 01:58:03;;;;;;;311.37;86.10;;;;;;;;;;5104161;28;20468;-90
2022/03/31 02:00:30;;;;;;;306.97;83.00;;;;;;;;;;5104811;28;20474;-90
2022/03/31 02:02:56;;;;;;;323.37;85.03;;;;;;;;;;5104634;28;20502;-89
2022/03/31 02:05:23;;;;;;;318.60;83.00;;;;;;;;;;5104957;28;20494;-90
2022/03/31 02:07:53;;;;;;;321.03;85.20;;;;;;;;;;5104813;28;20600;-88
2022/03/31 02:10:20;;;;;;;320.83;85.57;;;;;;;;;;5104375;28;20487;-90
2022/03/31 02:12:47;;;;;;;322.80;84.63;;;;;;;;;;5104216;28;20452;-91
2022/03/31 02:15:15;;;;;;;319.20;84.60;;;;;;;;;;5097328;28;20479;-90
2022/03/31 02:17:42;;;;;;;317.87;86.93;;;;;;;;;;5122852;28;20481;-91
2022/03/31 02:20:09;;;;;;;313.93;85.97;;;;;;;;;;5105432;28;20453;-92
2022/03/31 02:22:35;;;;;;;319.73;83.93;;;;;;;;;;5104597;28;20445;-91
2022/03/31 02:25:03;;;;;;;320.10;84.70;;;;;;;;;;5104055;28;20920;-91
2022/03/31 02:27:30;;;;;;;328.20;82.30;;;;;;;;;;5104492;28;20448;-90
2022/03/31 02:29:56;;;;;;;317.03;86.07;;;;;;;;;;5104176;28;20533;-89
2022/03/31 02:32:24;;;;;;;325.00;88.00;;;;;;;;;;5120644;28;20524;-91
2022/03/31 02:34:51;;;;;;;322.83;84.70;;;;;;;;;;5109876;28;20948;-91
2022/03/31 02:37:17;;;;;;;321.63;85.83;;;;;;;;;;5104187;28;20524;-89
2022/03/31 02:39:44;;;;;;;319.50;83.10;;;;;;;;;;5104038;28;20847;-90
2022/03/31 02:42:10;;;;;;;324.57;84.87;;;;;;;;;;5103584;28;20460;-89
2022/03/31 02:44:37;;;;;;;324.33;84.33;;;;;;;;;;5103679;28;20501;-90
2022/03/31 02:47:03;;;;;;;323.10;84.37;;;;;;;;;;5102358;28;20456;-91
2022/03/31 02:49:31;;;;;;;328.97;87.33;;;;;;;;;;5104165;28;20456;-91
2022/03/31 02:51:58;;;;;;;314.63;83.50;;;;;;;;;;5100763;28;21014;-91
2022/03/31 02:57:08;;;;;;;313.83;83.40;;;;;;;;;;5103223;28;20532;-92
2022/03/31 02:59:35;;;;;;;327.10;85.93;;;;;;;;;;5103510;28;20942;-92
2022/03/31 03:02:01;;;;;;;331.10;87.03;;;;;;;;;;5102796;28;20468;-90
2022/03/31 03:04:28;;;;;;;334.73;85.97;;;;;;;;;;5102949;28;20437;-90
2022/03/31 03:06:56;;;;;;;319.03;80.97;;;;;;;;;;5102675;28;20548;-90
2022/03/31 03:09:22;;;;;;;327.03;83.97;;;;;;;;;;5102861;28;20490;-90
2022/03/31 03:11:49;;;;;;;321.67;85.90;;;;;;;;;;5100530;28;20492;-91
2022/03/31 03:14:15;;;;;;;303.97;82.40;;;;;;;;;;5101812;28;20440;-92
2022/03/31 03:16:42;;;;;;;307.53;81.27;;;;;;;;;;5103182;28;20495;-92
2022/03/31 03:19:09;;;;;;;324.27;87.20;;;;;;;;;;5103075;28;20437;-92
2022/03/31 03:21:36;;;;;;;313.60;84.10;;;;;;;;;;5103597;28;20437;-92
2022/03/31 03:24:04;;;;;;;301.27;81.93;;;;;;;;;;5110612;28;20463;-92
2022/03/31 03:26:31;;;;;;;312.07;84.57;;;;;;;;;;5102980;28;20498;-91
2022/03/31 03:28:57;;;;;;;324.03;87.43;;;;;;;;;;5103199;28;20463;-93
2022/03/31 03:31:24;;;;;;;313.23;86.13;;;;;;;;;;5101490;28;20520;-92
2022/03/31 03:33:50;;;;;;;309.00;84.43;;;;;;;;;;5102632;28;20540;-91
2022/03/31 03:36:17;;;;;;;310.13;84.07;;;;;;;;;;5103176;28;20444;-91
2022/03/31 03:38:44;;;;;;;327.17;82.57;;;;;;;;;;5102791;28;20599;-92
2022/03/31 03:41:12;;;;;;;323.97;84.97;;;;;;;;;;5101846;28;21025;-91
2022/03/31 03:43:39;;;;;;;329.83;83.93;;;;;;;;;;5101931;28;20467;-92
2022/03/31 03:46:06;;;;;;;320.70;84.37;;;;;;;;;;5102578;28;20445;-92
2022/03/31 03:48:32;;;;;;;329.37;85.70;;;;;;;;;;5103094;28;20503;-92
2022/03/31 03:50:59;;;;;;;336.70;82.40;;;;;;;;;;5103148;28;20484;-91
2022/03/31 03:53:25;;;;;;;325.37;85.90;;;;;;;;;;5103083;28;20449;-92
2022/03/31 03:55:52;;;;;;;337.00;86.63;;;;;;;;;;5103784;28;20463;-92
2022/03/31 03:58:20;;;;;;;326.23;86.90;;;;;;;;;;5100539;28;20506;-93
2022/03/31 04:00:46;;;;;;;343.83;86.77;;;;;;;;;;5101764;28;20441;-92
2022/03/31 04:03:13;;;;;;;334.60;84.80;;;;;;;;;;5102041;28;20448;-93
2022/03/31 04:05:39;;;;;;;339.90;85.23;;;;;;;;;;5101815;28;20445;-92
2022/03/31 04:08:06;;;;;;;329.77;84.70;;;;;;;;;;5101885;28;20963;-90
2022/03/31 04:10:33;;;;;;;335.70;85.57;;;;;;;;;;5101451;28;20484;-91
2022/03/31 04:13:00;;;;;;;334.77;87.17;;;;;;;;;;5100796;28;20497;-91
2022/03/31 04:15:28;;;;;;;321.27;80.40;;;;;;;;;;5108272;28;20444;-92
2022/03/31 04:17:54;;;;;;;323.57;85.57;;;;;;;;;;5102525;28;20461;-91
2022/03/31 04:20:21;;;;;;;314.77;85.67;;;;;;;;;;5102783;28;20450;-91
2022/03/31 04:22:47;;;;;;;327.03;80.60;;;;;;;;;;5102994;28;20478;-92
2022/03/31 04:25:14;;;;;;;332.20;84.73;;;;;;;;;;5102245;28;20473;-93
2022/03/31 04:27:41;;;;;;;333.43;82.33;;;;;;;;;;5102562;28;20444;-91
2022/03/31 04:30:08;;;;;;;318.67;84.60;;;;;;;;;;5102518;28;20513;-91
2022/03/31 04:32:37;;;;;;;326.27;84.83;;;;;;;;;;5118063;28;20503;-92
2022/03/31 04:35:04;;;;;;;328.83;85.57;;;;;;;;;;5112394;28;20940;-90
2022/03/31 04:37:30;;;;;;;316.80;84.57;;;;;;;;;;5102114;28;20459;-90
2022/03/31 04:39:57;;;;;;;328.30;87.90;;;;;;;;;;5101722;28;20445;-91
2022/03/31 04:42:23;;;;;;;309.17;83.60;;;;;;;;;;5102698;28;20500;-91
2022/03/31 04:44:50;;;;;;;321.00;81.00;;;;;;;;;;5106020;28;20444;-92
2022/03/31 04:47:16;;;;;;;315.63;85.57;;;;;;;;;;5105990;28;20506;-91
2022/03/31 04:49:44;;;;;;;332.00;89.10;;;;;;;;;;5116735;28;20528;-93
2022/03/31 04:52:11;;;;;;;325.43;83.07;;;;;;;;;;5124652;28;20491;-90
2022/03/31 04:54:43;;;;;;;343.63;87.70;;;;;;;;;;5120383;28;20429;-91
2022/03/31 04:57:10;;;;;;;322.00;84.23;;;;;;;;;;5103794;28;20519;-91
2022/03/31 04:59:36;;;;;;;325.13;84.63;;;;;;;;;;5104079;28;20440;-91
2022/03/31 05:02:03;;;;;;;321.50;81.97;;;;;;;;;;5103370;28;20453;-93
2022/03/31 05:04:29;;;;;;;330.53;82.20;;;;;;;;;;5103280;28;20472;-93
2022/03/31 05:06:57;;;;;;;326.00;85.60;;;;;;;;;;5105547;28;20441;-92
2022/03/31 05:09:24;;;;;;;321.33;78.93;;;;;;;;;;5105351;28;20531;-91
2022/03/31 05:11:50;;;;;;;315.27;81.27;;;;;;;;;;5105124;28;20496;-95
2022/03/31 05:14:17;;;;;;;311.63;84.37;;;;;;;;;;5105489;28;20452;-94
2022/03/31 05:16:43;;;;;;;307.47;82.73;;;;;;;;;;5104611;28;20457;-93
2022/03/31 05:19:11;;;;;;;314.30;86.03;;;;;;;;;;5104939;28;21330;-92
2022/03/31 05:21:37;;;;;;;307.97;81.50;;;;;;;;;;5117221;28;20455;-92
2022/03/31 05:24:06;;;;;;;313.43;81.60;;;;;;;;;;5115601;28;20442;-94
2022/03/31 05:26:32;;;;;;;310.37;85.20;;;;;;;;;;5103936;28;20527;-95
2022/03/31 05:29:00;;;;;;;317.20;83.60;;;;;;;;;;5104396;28;20436;-93
2022/03/31 05:31:26;;;;;;;318.73;83.20;;;;;;;;;;5104581;28;20906;-94
2022/03/31 05:33:53;;;;;;;307.53;77.17;;;;;;;;;;5105750;28;20444;-93
2022/03/31 05:36:19;;;;;;;315.10;81.77;;;;;;;;;;5103276;28;20434;-95
2022/03/31 05:38:46;;;;;;;320.00;87.30;;;;;;;;;;5093987;28;20464;-94
2022/03/31 05:41:14;;;;;;;314.27;83.53;;;;;;;;;;5103227;28;20471;-93
2022/03/31 05:43:40;;;;;;;311.03;85.50;;;;;;;;;;5097029;28;20481;-92
2022/03/31 05:46:07;;;;;;;314.80;84.67;;;;;;;;;;5102159;28;20448;-96
2022/03/31 05:48:34;;;;;;;316.67;85.47;;;;;;;;;;5103399;28;20444;-96
2022/03/31 05:51:00;;;;;;;326.40;85.63;;;;;;;;;;5103592;28;20480;-95
2022/03/31 05:53:27;;;;;;;323.80;87.77;;;;;;;;;;5104602;28;21109;-96
2022/03/31 05:55:53;;;;;;;308.40;79.90;;;;;;;;;;5101764;28;20441;-95
2022/03/31 05:58:21;;;;;;;327.73;86.30;;;;;;;;;;5108387;28;20998;-94
2022/03/31 06:00:48;;;;;;;317.33;84.80;;;;;;;;;;5101328;28;20979;-96
2022/03/31 06:03:15;;;;;;;324.17;87.07;;;;;;;;;;5092219;28;20453;-96
2022/03/31 06:05:43;;;;;;;320.50;86.93;;;;;;;;;;5090685;28;20441;-96
2022/03/31 06:08:10;;;;;;;320.00;88.93;;;;;;;;;;5077145;28;20446;-96
2022/03/31 06:10:36;;;;;;;319.33;86.00;;;;;;;;;;5087859;28;20444;-95
2022/03/31 06:13:03;;;;;;;318.13;88.73;;;;;;;;;;5098601;28;20494;-94
2022/03/31 06:15:32;;;;;;;314.90;85.10;;;;;;;;;;5101294;28;20437;-93
2022/03/31 06:17:58;;;;;;;307.20;79.63;;;;;;;;;;5093787;28;20442;-95
2022/03/31 06:20:25;;;;;;;314.00;84.07;;;;;;;;;;5085354;28;20454;-93
2022/03/31 06:22:51;;;;;;;317.10;79.77;;;;;;;;;;5086193;28;20472;-94
2022/03/31 06:25:18;;;;;;;323.50;85.00;;;;;;;;;;5089093;28;20437;-94
2022/03/31 06:27:45;;;;;;;323.63;84.73;;;;;;;;;;5101816;28;20948;-94
2022/03/31 06:30:12;;;;;;;307.30;82.07;;;;;;;;;;5103046;28;20444;-93
2022/03/31 06:32:40;;;;;;;314.07;82.67;;;;;;;;;;5104654;28;20488;-95
2022/03/31 06:35:11;;;;;;;315.23;82.93;;;;;;;;;;5104420;28;20467;-92
2022/03/31 06:37:38;;;;;;;313.90;82.77;;;;;;;;;;5104454;28;20445;-93
2022/03/31 06:40:05;;;;;;;305.73;80.90;;;;;;;;;;5106033;28;20452;-95
2022/03/31 06:42:32;;;;;;;312.60;82.80;;;;;;;;;;5106110;28;20449;-95
2022/03/31 06:44:58;;;;;;;317.63;82.87;;;;;;;;;;5106069;28;20441;-96
2022/03/31 06:47:25;;;;;;;300.20;76.23;;;;;;;;;;5103917;28;20505;-95
2022/03/31 06:49:53;;;;;;;307.63;82.07;;;;;;;;;;5086088;28;20503;-94
2022/03/31 06:52:19;;;;;;;307.27;81.27;;;;;;;;;;5104532;28;20538;-94
2022/03/31 06:54:46;;;;;;;319.33;82.10;;;;;;;;;;5104879;28;20516;-95
2022/03/31 06:57:12;;;;;;;301.23;80.20;;;;;;;;;;5103811;28;20533;-96
2022/03/31 06:59:40;;;;;;;310.23;83.03;;;;;;;;;;5104631;28;20433;-96
2022/03/31 07:02:07;;;;;;;309.70;80.77;;;;;;;;;;5106361;28;20440;-96
2022/03/31 07:04:33;;;;;;;317.40;82.83;;;;;;;;;;5105820;28;20445;-93
2022/03/31 07:07:01;;;;;;;307.70;81.33;;;;;;;;;;5091827;28;20438;-96
2022/03/31 07:09:29;;;;;;;320.70;86.27;;;;;;;;;;5084990;28;20563;-96
2022/03/31 07:11:56;;;;;;;304.47;82.50;;;;;;;;;;5101002;28;20493;-96
2022/03/31 07:14:23;;;;;;;303.23;82.33;;;;;;;;;;5106629;28;20796;-96
2022/03/31 07:16:49;;;;;;;295.73;82.63;;;;;;;;;;5103672;28;20456;-94
2022/03/31 07:19:16;;;;;;;304.00;85.57;;;;;;;;;;5101542;28;20887;-96
2022/03/31 07:21:43;;;;;;;308.03;83.93;;;;;;;;;;5103074;28;20441;-94
2022/03/31 07:24:11;;;;;;;309.03;84.47;;;;;;;;;;5098849;28;20873;-96
2022/03/31 07:26:40;;;;;;;314.53;83.57;;;;;;;;;;5104609;28;20449;-96
2022/03/31 07:29:10;;;;;;;315.07;85.37;;;;;;;;;;5102272;28;20483;-95
2022/03/31 07:31:36;;;;;;;319.03;84.37;;;;;;;;;;5095996;28;20480;-95
2022/03/31 07:34:06;;;;;;;303.73;80.37;;;;;;;;;;5108234;28;20457;-95
2022/03/31 07:36:32;;;;;;;319.87;84.53;;;;;;;;;;5105927;28;20441;-95
2022/03/31 07:38:59;;;;;;;315.53;84.40;;;;;;;;;;5106289;28;20449;-95
2022/03/31 07:41:27;;;;;;;321.93;84.73;;;;;;;;;;5100747;28;20445;-96
2022/03/31 07:43:53;;;;;;;312.20;84.43;;;;;;;;;;5085022;28;20540;-96
2022/03/31 07:46:20;;;;;;;317.70;86.00;;;;;;;;;;5093455;28;20461;-96
2022/03/31 07:48:46;;;;;;;319.97;84.33;;;;;;;;;;5106978;28;20453;-96
2022/03/31 07:51:13;;;;;;;313.67;85.67;;;;;;;;;;5103139;28;20436;-96
2022/03/31 07:53:40;;;;;;;310.30;83.90;;;;;;;;;;5102833;28;20452;-96
2022/03/31 07:56:07;;;;;;;320.73;85.23;;;;;;;;;;5081888;28;20437;-95
2022/03/31 07:58:37;;;;;;;320.80;87.70;;;;;;;;;;5102594;28;20453;-96
2022/03/31 08:01:03;;;;;;;321.37;85.40;;;;;;;;;;5103508;28;20456;-95
2022/03/31 08:03:30;;;;;;;327.20;87.23;;;;;;;;;;5101911;28;20494;-95
2022/03/31 08:05:56;;;;;;;323.17;89.20;;;;;;;;;;5102462;28;20502;-96
2022/03/31 08:08:23;;;;;;;313.50;83.47;;;;;;;;;;5104520;28;20469;-95
2022/03/31 08:10:50;;;;;;;331.70;84.40;;;;;;;;;;5102731;28;20448;-95
2022/03/31 08:13:23;;;;;;;311.87;83.80;;;;;;;;;;5103055;28;20488;-95
2022/03/31 08:15:52;;;;;;;328.17;85.47;;;;;;;;;;5103958;28;20441;-96
2022/03/31 08:18:19;;;;;;;323.97;84.50;;;;;;;;;;5099239;28;20469;-96
2022/03/31 08:20:46;;;;;;;316.60;87.40;;;;;;;;;;5083907;28;20493;-94
2022/03/31 08:23:13;;;;;;;324.70;85.50;;;;;;;;;;5084304;28;20453;-96
2022/03/31 08:25:41;;;;;;;324.50;85.87;;;;;;;;;;5087998;28;20473;-96
2022/03/31 08:28:07;;;;;;;325.90;85.53;;;;;;;;;;5106063;28;20449;-94
2022/03/31 08:30:34;;;;;;;326.70;88.07;;;;;;;;;;5105818;28;20494;-96
2022/03/31 08:33:02;;;;;;;328.03;87.73;;;;;;;;;;5109212;28;20518;-96
2022/03/31 08:35:29;;;;;;;319.50;87.00;;;;;;;;;;5107128;28;20441;-94
2022/03/31 08:38:02;;;;;;;317.80;88.33;;;;;;;;;;5107200;28;20468;-96
2022/03/31 08:40:31;;;;;;;312.87;84.03;;;;;;;;;;5112544;28;20440;-96
2022/03/31 08:42:57;;;;;;;313.33;87.23;;;;;;;;;;5107536;28;20467;-96
2022/03/31 08:45:24;;;;;;;316.10;87.73;;;;;;;;;;5120040;28;20444;-96
2022/03/31 08:48:02;;;;;;;316.73;84.10;;;;;;;;;;5132396;28;20450;-96
2022/03/31 08:50:40;;;;;;;322.17;86.00;;;;;;;;;;5118376;22;20523;-96
2022/03/31 08:53:07;;;;;;;323.73;85.47;;;;;;;;;;5090317;28;20522;-95
2022/03/31 08:55:35;;;;;;;321.17;84.53;;;;;;;;;;5096782;28;20457;-96
2022/03/31 08:58:02;;;;;;;321.07;81.03;;;;;;;;;;5112451;28;20432;-96
2022/03/31 09:00:28;;;;;;;345.20;88.40;;;;;;;;;;5110037;28;20461;-94
2022/03/31 09:02:56;;;;;;;325.80;87.60;;;;;;;;;;5106036;28;20479;-96
2022/03/31 09:05:22;;;;;;;328.40;86.30;;;;;;;;;;5110843;28;20460;-95
2022/03/31 09:07:54;;;;;;;335.63;87.00;;;;;;;;;;5108687;28;20444;-96
2022/03/31 09:10:30;;;;;;;330.70;85.43;;;;;;;;;;5106553;28;20491;-95
2022/03/31 09:13:01;;;;;;;331.70;91.20;;;;;;;;;;5084116;28;20500;-96
2022/03/31 09:15:27;;;;;;;312.37;86.27;;;;;;;;;;5106596;28;20437;-96
2022/03/31 09:17:55;;;;;;;321.67;89.20;;;;;;;;;;5088359;28;20479;-93
2022/03/31 09:20:22;;;;;;;311.67;87.20;;;;;;;;;;5085793;28;20457;-94
2022/03/31 09:22:49;;;;;;;315.53;86.97;;;;;;;;;;5085558;28;20854;-96
2022/03/31 09:25:25;;;;;;;310.90;86.87;;;;;;;;;;5085992;28;20449;-95
2022/03/31 09:27:51;;;;;;;304.77;86.33;;;;;;;;;;5098402;28;20444;-95
2022/03/31 09:30:18;;;;;;;298.20;86.37;;;;;;;;;;5084365;28;20503;-96
2022/03/31 09:32:48;;;;;;;304.30;90.57;;;;;;;;;;5102800;28;20504;-96
2022/03/31 09:35:20;;;;;;;305.37;88.73;;;;;;;;;;5085220;28;20923;-94
2022/03/31 09:37:49;;;;;;;314.63;90.90;;;;;;;;;;5101571;28;21093;-96
2022/03/31 09:40:16;;;;;;;317.37;88.60;;;;;;;;;;5102392;28;20456;-96
2022/03/31 09:42:55;;;;;;;320.83;92.57;;;;;;;;;;5104485;28;20449;-95
2022/03/31 09:45:21;;;;;;;313.00;89.97;;;;;;;;;;5102443;28;20462;-94
2022/03/31 09:47:51;;;;;;;317.00;90.27;;;;;;;;;;5103004;28;20449;-96
2022/03/31 09:50:18;;;;;;;322.73;92.87;;;;;;;;;;5103282;28;20476;-96
2022/03/31 09:52:44;;;;;;;326.23;92.83;;;;;;;;;;5102923;28;20476;-96
2022/03/31 09:55:12;;;;;;;333.40;94.87;;;;;;;;;;5103480;28;20457;-96
2022/03/31 09:57:39;;;;;;;311.37;89.07;;;;;;;;;;5102783;28;20445;-96
2022/03/31 10:00:08;;;;;;;316.93;91.57;;;;;;;;;;5106034;28;20448;-96
2022/03/31 10:02:36;;;;;;;308.70;91.07;;;;;;;;;;5094116;28;20488;-95
2022/03/31 10:05:03;;;;;;;334.07;91.77;;;;;;;;;;5084793;28;20480;-96
2022/03/31 10:07:30;;;;;;;323.60;91.17;;;;;;;;;;5083852;28;20446;-94
2022/03/31 10:09:57;;;;;;;327.63;91.10;;;;;;;;;;5085224;28;20457;-96
2022/03/31 10:12:27;;;;;;;340.13;91.93;;;;;;;;;;5091082;28;20489;-95
2022/03/31 10:14:55;;;;;;;319.87;89.60;;;;;;;;;;5085826;28;20445;-95
2022/03/31 10:17:27;;;;;;;315.00;89.07;;;;;;;;;;5085090;28;20519;-94
2022/03/31 10:19:54;;;;;;;319.90;90.60;;;;;;;;;;5085086;28;20473;-93
2022/03/31 10:25:07;;;;;;;309.80;88.33;;;;;;;;;;5083520;28;20444;-94
2022/03/31 10:27:34;;;;;;;312.90;89.40;;;;;;;;;;5093096;28;20512;-95
2022/03/31 10:30:09;;;;;;;315.47;92.53;;;;;;;;;;5103532;28;21250;-94
2022/03/31 10:32:37;;;;;;;318.13;89.37;;;;;;;;;;5093763;28;20493;-94
2022/03/31 10:35:04;;;;;;;328.60;92.57;;;;;;;;;;5084308;28;20476;-94
2022/03/31 10:37:32;;;;;;;316.07;90.67;;;;;;;;;;5092661;28;20445;-96
2022/03/31 10:40:00;;;;;;;319.43;92.40;;;;;;;;;;5103489;28;20456;-95
2022/03/31 10:42:26;;;;;;;313.50;91.83;;;;;;;;;;5104037;28;20449;-92
2022/03/31 10:45:17;;;;;;;315.03;91.07;;;;;;;;;;5104863;28;20475;-94
2022/03/31 10:47:44;;;;;;;322.43;91.77;;;;;;;;;;5073594;28;20468;-95
2022/03/31 10:50:23;;;;;;;322.67;91.10;;;;;;;;;;5085713;28;20478;-95
2022/03/31 10:52:57;;;;;;;316.77;89.60;;;;;;;;;;5085123;28;20523;-95
2022/03/31 10:55:33;;;;;;;328.47;91.37;;;;;;;;;;5085030;28;20490;-96
2022/03/31 10:58:00;;;;;;;326.27;92.67;;;;;;;;;;5095603;28;20506;-96
2022/03/31 11:00:26;;;;;;;324.37;90.67;;;;;;;;;;5103794;28;20474;-95
2022/03/31 11:02:55;;;;;;;324.00;89.90;;;;;;;;;;5104437;28;20441;-95
2022/03/31 11:05:22;;;;;;;327.30;87.87;;;;;;;;;;5104296;28;20452;-95
2022/03/31 11:07:49;;;;;;;328.20;88.40;;;;;;;;;;5104521;28;20479;-96
2022/03/31 11:10:15;;;;;;;338.43;88.87;;;;;;;;;;5104427;28;20515;-95
2022/03/31 11:12:43;;;;;;;326.67;88.17;;;;;;;;;;5103635;28;20535;-96
2022/03/31 11:15:11;;;;;;;329.50;91.37;;;;;;;;;;5105926;28;20486;-96
2022/03/31 11:17:39;;;;;;;334.40;90.03;;;;;;;;;;5098206;28;20460;-95
2022/03/31 11:20:16;;;;;;;340.13;89.20;;;;;;;;;;5087864;28;20456;-96
2022/03/31 11:22:49;;;;;;;340.57;90.10;;;;;;;;;;5086911;28;20451;-96
2022/03/31 11:25:16;;;;;;;328.20;87.50;;;;;;;;;;5087330;28;20456;-96
2022/03/31 11:27:43;;;;;;;325.13;84.67;;;;;;;;;;5087304;28;20507;-95
2022/03/31 11:30:11;;;;;;;331.73;88.43;;;;;;;;;;5086329;28;20453;-96
2022/03/31 11:32:39;;;;;;;321.67;85.40;;;;;;;;;;5086196;28;20473;-96
2022/03/31 11:35:10;;;;;;;329.30;84.27;;;;;;;;;;5086431;28;20445;-96
2022/03/31 11:37:49;;;;;;;341.50;94.07;;;;;;;;;;5084689;28;20526;-96
2022/03/31 11:40:20;;;;;;;328.63;86.40;;;;;;;;;;5084016;28;20854;-96
2022/03/31 11:42:46;;;;;;;332.17;85.53;;;;;;;;;;5088955;28;20450;-95
2022/03/31 11:45:22;;;;;;;339.73;84.43;;;;;;;;;;5083858;28;20495;-96
2022/03/31 11:47:55;;;;;;;332.63;86.50;;;;;;;;;;5092387;28;20843;-96
2022/03/31 11:50:21;;;;;;;323.43;88.87;;;;;;;;;;5104222;28;20476;-94
2022/03/31 11:52:50;;;;;;;333.77;89.93;;;;;;;;;;5104957;28;20493;-95
2022/03/31 11:55:20;;;;;;;323.90;87.57;;;;;;;;;;5108119;28;20453;-95
2022/03/31 11:57:54;;;;;;;337.27;90.03;;;;;;;;;;5106736;28;20441;-94
2022/03/31 12:00:21;;;;;;;331.67;89.27;;;;;;;;;;5091037;28;20580;-95
2022/03/31 12:02:55;;;;;;;331.10;89.00;;;;;;;;;;5107848;28;20448;-96
2022/03/31 12:05:21;;;;;;;326.97;89.30;;;;;;;;;;5107202;28;20475;-94
2022/03/31 12:07:50;;;;;;;337.20;93.30;;;;;;;;;;5105991;28;20437;-95
2022/03/31 12:10:18;;;;;;;336.83;95.67;;;;;;;;;;5105996;28;20479;-96
2022/03/31 12:12:48;;;;;;;337.17;92.23;;;;;;;;;;5105437;28;20483;-95
2022/03/31 12:15:19;;;;;;;339.03;94.30;;;;;;;;;;5106027;28;20479;-95
2022/03/31 12:17:56;;;;;;;340.73;92.70;;;;;;;;;;5100103;28;20953;-94
2022/03/31 12:20:23;;;;;;;346.70;95.60;;;;;;;;;;5084117;28;20453;-96
2022/03/31 12:22:53;;;;;;;328.27;93.60;;;;;;;;;;5085413;28;20445;-96
2022/03/31 12:25:29;;;;;;;338.67;96.63;;;;;;;;;;5082905;28;20471;-95
2022/03/31 12:27:57;;;;;;;334.00;95.20;;;;;;;;;;5087834;28;20505;-96
2022/03/31 12:30:24;;;;;;;354.80;95.83;;;;;;;;;;5102115;28;20449;-96
2022/03/31 12:32:50;;;;;;;338.97;97.20;;;;;;;;;;5101795;28;20971;-96
2022/03/31 12:35:18;;;;;;;340.80;93.07;;;;;;;;;;5103856;28;20870;-94
2022/03/31 12:37:45;;;;;;;336.83;95.10;;;;;;;;;;5103822;28;20449;-96
2022/03/31 12:40:15;;;;;;;338.93;98.37;;;;;;;;;;5102355;28;20468;-94
2022/03/31 12:42:50;;;;;;;343.53;99.53;;;;;;;;;;5101883;28;20451;-94
2022/03/31 12:45:17;;;;;;;328.43;90.30;;;;;;;;;;5102271;28;20511;-96
2022/03/31 12:47:45;;;;;;;337.40;99.17;;;;;;;;;;5098181;28;20453;-95
2022/03/31 12:50:16;;;;;;;339.33;99.47;;;;;;;;;;5082288;28;20473;-96
2022/03/31 12:52:52;;;;;;;326.90;90.00;;;;;;;;;;5083059;28;20467;-93
2022/03/31 12:55:21;;;;;;;333.57;93.70;;;;;;;;;;5085713;28;20548;-93
2022/03/31 12:57:54;;;;;;;323.80;92.40;;;;;;;;;;5089156;28;20437;-94
2022/03/31 13:00:22;;;;;;;322.87;90.47;;;;;;;;;;5105986;28;20887;-93
2022/03/31 13:02:49;;;;;;;340.77;96.73;;;;;;;;;;5105865;28;20451;-92
2022/03/31 13:05:19;;;;;;;342.17;94.83;;;;;;;;;;5106507;28;20524;-95
2022/03/31 13:07:45;;;;;;;339.00;91.27;;;;;;;;;;5104990;28;20449;-93
2022/03/31 13:10:12;;;;;;;324.77;87.70;;;;;;;;;;5105161;28;21063;-94
2022/03/31 13:12:40;;;;;;;335.50;91.57;;;;;;;;;;5105958;28;20832;-93
2022/03/31 13:15:11;;;;;;;328.40;89.77;;;;;;;;;;5106469;28;20510;-95
2022/03/31 13:17:37;;;;;;;330.40;88.73;;;;;;;;;;5104595;28;20450;-96
2022/03/31 13:20:04;;;;;;;329.53;90.90;;;;;;;;;;5086297;28;20847;-96
2022/03/31 13:22:31;;;;;;;334.27;89.93;;;;;;;;;;5085736;28;20437;-92
2022/03/31 13:24:58;;;;;;;353.47;100.77;;;;;;;;;;5085450;28;20454;-95
2022/03/31 13:27:25;;;;;;;345.70;93.50;;;;;;;;;;5098541;28;20451;-93
2022/03/31 13:29:54;;;;;;;330.43;89.97;;;;;;;;;;5105973;28;20448;-94
2022/03/31 13:32:21;;;;;;;334.67;90.13;;;;;;;;;;5104032;28;20445;-93
2022/03/31 13:34:48;;;;;;;321.90;88.37;;;;;;;;;;5086213;28;20535;-95
2022/03/31 13:37:15;;;;;;;337.93;92.63;;;;;;;;;;5086750;28;20975;-96
2022/03/31 13:39:42;;;;;;;347.97;89.73;;;;;;;;;;5094532;28;20462;-95
2022/03/31 13:42:09;;;;;;;338.47;91.77;;;;;;;;;;5086249;28;20446;-96
2022/03/31 13:44:36;;;;;;;336.60;92.80;;;;;;;;;;5099894;28;20494;-96
2022/03/31 13:47:04;;;;;;;321.67;87.27;;;;;;;;;;5105291;28;20445;-93
2022/03/31 13:49:32;;;;;;;330.63;90.57;;;;;;;;;;5088859;28;20519;-96
2022/03/31 13:51:58;;;;;;;334.23;90.17;;;;;;;;;;5091300;28;20446;-93
2022/03/31 13:54:27;;;;;;;335.10;91.73;;;;;;;;;;5099814;28;20491;-93
2022/03/31 13:56:54;;;;;;;351.63;91.10;;;;;;;;;;5088846;28;20456;-94
2022/03/31 14:02:07;;;;;;;335.63;88.23;;;;;;;;;;5095815;28;20412;-95
2022/03/31 14:04:35;;;;;;;349.07;94.60;;;;;;;;;;5100484;28;20445;-96
2022/03/31 14:07:03;;;;;;;340.07;90.60;;;;;;;;;;5113574;28;20452;-96
2022/03/31 14:09:30;;;;;;;329.50;92.90;;;;;;;;;;5110777;28;20951;-93
2022/03/31 14:11:57;;;;;;;334.33;90.73;;;;;;;;;;5099217;28;20476;-96
2022/03/31 14:14:25;;;;;;;345.20;89.87;;;;;;;;;;5094690;28;20489;-96